Terminal Aerodrome Forecast
Issued by NWS Louisville, KY

Home | Current Version | Previous Version | Text Only | Print | Product List | Glossary On
Versions: 1 2 3 4 5 6 7 8 9 10 11 12 13 14 15
000
FTUS43 KLMK 221300 AAA
TAFBWG
TAF AMD
KBWG 221328Z 2213/2312 15004KT P6SM SCT018 BKN028
      TEMPO 2213/2215 BKN018
     FM221600 16012KT P6SM BKN023
     FM230000 17014KT 3SM -SHRA BR OVC010=

USA.gov is the U.S. government's official web portal to all federal, state and local government web resources and services.